createdAt,value
2018-03-15T00:00:50.281Z,5.5
2018-03-15T00:01:50.417Z,5.56
2018-03-15T00:02:50.308Z,5.53
2018-03-15T00:03:50.293Z,5.51
2018-03-15T00:04:50.292Z,5.5
2018-03-15T00:05:50.324Z,5.51
2018-03-15T00:06:50.324Z,5.49
2018-03-15T00:07:50.299Z,5.5
2018-03-15T00:08:50.329Z,5.47
2018-03-15T00:09:50.308Z,5.5
2018-03-15T00:10:50.312Z,5.45
2018-03-15T00:11:50.321Z,5.43
2018-03-15T00:12:50.342Z,5.45
2018-03-15T00:13:50.347Z,5.47
2018-03-15T00:14:50.325Z,5.47
2018-03-15T00:15:50.317Z,5.46
2018-03-15T00:16:50.355Z,5.49
2018-03-15T00:17:50.328Z,5.51
2018-03-15T00:18:50.334Z,5.53
2018-03-15T00:19:50.352Z,5.5
2018-03-15T00:20:50.340Z,5.54
2018-03-15T00:21:50.338Z,5.56
2018-03-15T00:22:50.375Z,5.59
2018-03-15T00:23:50.352Z,5.53
2018-03-15T00:24:50.340Z,5.54
2018-03-15T00:25:50.347Z,5.53
2018-03-15T00:26:50.349Z,5.5
2018-03-15T00:27:50.378Z,5.47
2018-03-15T00:28:50.366Z,5.5
2018-03-15T00:29:50.373Z,5.47
2018-03-15T00:30:50.370Z,5.49
2018-03-15T00:31:50.393Z,5.53
2018-03-15T00:32:50.456Z,5.53
2018-03-15T00:33:50.379Z,5.47
2018-03-15T00:34:50.383Z,5.49
2018-03-15T00:35:50.382Z,5.4
2018-03-15T00:36:50.410Z,5.42
2018-03-15T00:37:50.388Z,5.45
2018-03-15T00:38:50.390Z,5.39
2018-03-15T00:39:50.394Z,5.4
2018-03-15T00:40:50.398Z,5.43
2018-03-15T00:41:50.417Z,5.43
2018-03-15T00:42:50.402Z,5.4
2018-03-15T00:43:50.626Z,5.38
2018-03-15T00:44:50.419Z,5.32
2018-03-15T00:45:50.421Z,5.26
2018-03-15T00:46:50.420Z,5.29
2018-03-15T00:47:50.424Z,5.25
2018-03-15T00:48:50.456Z,5.23
2018-03-15T00:49:50.441Z,5.19
2018-03-15T00:50:50.448Z,5.19
2018-03-15T00:51:50.454Z,5.23
2018-03-15T00:52:50.469Z,5.23
2018-03-15T00:53:50.481Z,5.25
2018-03-15T00:54:50.462Z,5.22
2018-03-15T00:55:50.471Z,5.26
2018-03-15T00:56:50.475Z,5.29
2018-03-15T00:57:50.482Z,5.28
2018-03-15T00:58:50.480Z,5.26
2018-03-15T00:59:50.481Z,5.28
2018-03-15T01:00:50.500Z,5.26
2018-03-15T01:01:50.498Z,5.3
2018-03-15T01:02:50.515Z,5.25
2018-03-15T01:03:50.560Z,5.3
2018-03-15T01:04:50.510Z,5.25
2018-03-15T01:05:50.520Z,5.29
2018-03-15T01:06:50.524Z,5.29
2018-03-15T01:07:50.521Z,5.29
2018-03-15T01:08:50.529Z,5.32
2018-03-15T01:09:50.542Z,5.33
2018-03-15T01:10:50.547Z,5.36
2018-03-15T01:11:50.544Z,5.38
2018-03-15T01:12:50.576Z,5.3
2018-03-15T01:13:50.553Z,5.28
2018-03-15T01:14:50.570Z,5.26
2018-03-15T01:15:50.583Z,5.28
2018-03-15T01:16:50.561Z,5.35
2018-03-15T01:17:50.595Z,5.35
2018-03-15T01:18:50.587Z,5.28
2018-03-15T01:19:50.581Z,5.23
2018-03-15T01:20:50.604Z,5.22
2018-03-15T01:21:50.598Z,5.19
2018-03-15T01:22:50.593Z,5.16
2018-03-15T01:23:50.597Z,5.19
2018-03-15T01:24:50.582Z,5.18
2018-03-15T01:25:50.614Z,5.15
2018-03-15T01:26:50.593Z,5.08
2018-03-15T01:27:50.602Z,5.1
2018-03-15T01:28:50.594Z,5.15
2018-03-15T01:29:50.616Z,5.15
2018-03-15T01:30:50.618Z,5.11
2018-03-15T01:31:50.607Z,5.1
2018-03-15T01:32:50.612Z,5.14
2018-03-15T01:33:50.797Z,5.14
2018-03-15T01:34:50.619Z,5.1
2018-03-15T01:35:50.620Z,5.1
2018-03-15T01:36:50.618Z,5.07
2018-03-15T01:37:50.620Z,5.12
2018-03-15T01:38:50.644Z,5.07
2018-03-15T01:39:50.627Z,5.12
2018-03-15T01:40:50.627Z,5.1
2018-03-15T01:41:50.619Z,5.1
2018-03-15T01:42:50.641Z,5.07
2018-03-15T01:43:50.645Z,5.02
2018-03-15T01:44:50.677Z,5.04
2018-03-15T01:45:50.662Z,5.02
2018-03-15T01:46:50.658Z,5
2018-03-15T01:47:50.667Z,4.95
2018-03-15T01:48:50.657Z,4.97
2018-03-15T01:49:50.689Z,4.94
2018-03-15T01:50:50.672Z,4.94
2018-03-15T01:51:50.668Z,4.91
2018-03-15T01:52:50.669Z,4.84
2018-03-15T01:53:50.666Z,4.86
2018-03-15T01:54:50.714Z,4.81
2018-03-15T01:55:50.682Z,4.84
2018-03-15T01:56:50.684Z,4.84
2018-03-15T01:57:50.677Z,4.84
2018-03-15T01:58:50.691Z,4.84
2018-03-15T01:59:50.681Z,4.87
2018-03-15T02:00:50.686Z,4.9
2018-03-15T02:01:50.727Z,4.84
2018-03-15T02:02:50.693Z,4.86
2018-03-15T02:03:50.700Z,4.84
2018-03-15T02:04:50.690Z,4.81
2018-03-15T02:05:50.699Z,4.81
2018-03-15T02:06:50.720Z,4.83
2018-03-15T02:07:50.708Z,4.8
2018-03-15T02:08:50.698Z,4.76
2018-03-15T02:09:50.715Z,4.79
2018-03-15T02:10:50.702Z,4.8
2018-03-15T02:11:50.716Z,4.8
2018-03-15T02:12:50.808Z,4.77
2018-03-15T02:13:50.734Z,4.8
2018-03-15T02:14:50.712Z,4.77
2018-03-15T02:15:50.724Z,4.77
2018-03-15T02:16:50.727Z,4.76
2018-03-15T02:17:50.953Z,4.73
2018-03-15T02:18:50.728Z,4.73
2018-03-15T02:19:50.725Z,4.69
2018-03-15T02:20:50.726Z,4.67
2018-03-15T02:21:50.729Z,4.67
2018-03-15T02:22:50.772Z,4.7
2018-03-15T02:23:50.734Z,4.69
2018-03-15T02:24:50.738Z,4.7
2018-03-15T02:25:50.736Z,4.73
2018-03-15T02:26:50.739Z,4.7
2018-03-15T02:27:51.002Z,4.7
2018-03-15T02:28:50.756Z,4.67
2018-03-15T02:29:50.757Z,4.65
2018-03-15T02:30:50.752Z,4.66
2018-03-15T02:31:50.770Z,4.66
2018-03-15T02:32:50.776Z,4.66
2018-03-15T02:33:50.771Z,4.67
2018-03-15T02:34:50.780Z,4.62
2018-03-15T02:35:50.771Z,4.63
2018-03-15T02:36:50.784Z,4.62
2018-03-15T02:37:50.813Z,4.63
2018-03-15T02:38:50.787Z,4.67
2018-03-15T02:39:50.814Z,4.62
2018-03-15T02:40:50.815Z,4.63
2018-03-15T02:41:50.801Z,4.6
2018-03-15T02:42:50.820Z,4.65
2018-03-15T02:43:50.832Z,4.65
2018-03-15T02:44:50.820Z,4.65
2018-03-15T02:45:50.809Z,4.66
2018-03-15T02:46:50.813Z,4.62
2018-03-15T02:47:50.849Z,4.63
2018-03-15T02:48:50.841Z,4.66
2018-03-15T02:49:50.830Z,4.63
2018-03-15T02:50:50.841Z,4.63
2018-03-15T02:51:50.852Z,4.62
2018-03-15T02:52:51.094Z,4.63
2018-03-15T02:53:50.864Z,4.65
2018-03-15T02:54:50.835Z,4.66
2018-03-15T02:55:50.851Z,4.67
2018-03-15T02:56:50.853Z,4.72
2018-03-15T02:57:50.883Z,4.7
2018-03-15T02:58:50.867Z,4.66
2018-03-15T02:59:50.850Z,4.69
2018-03-15T03:00:50.855Z,4.67
2018-03-15T03:01:50.860Z,4.59
2018-03-15T03:02:50.883Z,4.56
2018-03-15T03:03:50.895Z,4.6
2018-03-15T03:04:50.863Z,4.59
2018-03-15T03:05:50.909Z,4.56
2018-03-15T03:06:50.880Z,4.57
2018-03-15T03:07:50.896Z,4.52
2018-03-15T03:08:50.867Z,4.52
2018-03-15T03:09:50.888Z,4.49
2018-03-15T03:10:50.879Z,4.49
2018-03-15T03:11:50.870Z,4.52
2018-03-15T03:12:50.893Z,4.53
2018-03-15T03:13:50.875Z,4.49
2018-03-15T03:14:50.882Z,4.49
2018-03-15T03:15:50.889Z,4.46
2018-03-15T03:16:51.035Z,4.45
2018-03-15T03:17:50.887Z,4.42
2018-03-15T03:18:50.880Z,4.39
2018-03-15T03:19:50.888Z,4.42
2018-03-15T03:20:50.890Z,4.42
2018-03-15T03:21:50.917Z,4.4
2018-03-15T03:22:50.905Z,4.38
2018-03-15T03:23:50.902Z,4.33
2018-03-15T03:24:50.913Z,4.33
2018-03-15T03:25:50.915Z,4.38
2018-03-15T03:26:50.919Z,4.32
2018-03-15T03:27:50.944Z,4.35
2018-03-15T03:28:50.974Z,4.33
2018-03-15T03:29:50.911Z,4.35
2018-03-15T03:30:50.940Z,4.35
2018-03-15T03:31:50.931Z,4.36
2018-03-15T03:32:50.944Z,4.36
2018-03-15T03:33:50.931Z,4.38
2018-03-15T03:34:50.928Z,4.35
2018-03-15T03:35:50.941Z,4.33
2018-03-15T03:36:50.945Z,4.33
2018-03-15T03:37:50.958Z,4.33
2018-03-15T03:38:50.958Z,4.29
2018-03-15T03:39:50.950Z,4.29
2018-03-15T03:40:50.945Z,4.28
2018-03-15T03:41:50.985Z,4.28
2018-03-15T03:42:50.965Z,4.29
2018-03-15T03:43:50.967Z,4.33
2018-03-15T03:44:50.970Z,4.35
2018-03-15T03:45:50.971Z,4.28
2018-03-15T03:46:50.973Z,4.25
2018-03-15T03:47:50.970Z,4.29
2018-03-15T03:48:50.988Z,4.28
2018-03-15T03:49:50.968Z,4.35
2018-03-15T03:50:51.000Z,4.29
2018-03-15T03:51:50.980Z,4.32
2018-03-15T03:52:50.982Z,4.32
2018-03-15T03:53:50.979Z,4.29
2018-03-15T03:54:50.973Z,4.3
2018-03-15T03:55:51.058Z,4.38
2018-03-15T03:56:51.004Z,4.36
2018-03-15T03:57:51.005Z,4.4
2018-03-15T03:58:50.995Z,4.39
2018-03-15T03:59:51.016Z,4.36
2018-03-15T04:00:51.003Z,4.39
2018-03-15T04:01:51.027Z,4.38
2018-03-15T04:02:51.014Z,4.33
2018-03-15T04:03:51.017Z,4.35
2018-03-15T04:04:51.024Z,4.35
2018-03-15T04:05:51.024Z,4.35
2018-03-15T04:06:51.054Z,4.33
2018-03-15T04:07:51.033Z,4.36
2018-03-15T04:08:51.032Z,4.38
2018-03-15T04:09:51.033Z,4.32
2018-03-15T04:10:51.041Z,4.3
2018-03-15T04:11:51.042Z,4.3
2018-03-15T04:12:51.046Z,4.29
2018-03-15T04:13:51.053Z,4.3
2018-03-15T04:14:51.051Z,4.32
2018-03-15T04:15:51.081Z,4.32
2018-03-15T04:16:51.045Z,4.32
2018-03-15T04:17:51.053Z,4.3
2018-03-15T04:18:51.054Z,4.3
2018-03-15T04:19:51.059Z,4.28
2018-03-15T04:20:51.089Z,4.29
2018-03-15T04:21:51.064Z,4.32
2018-03-15T04:22:51.063Z,4.33
2018-03-15T04:23:51.078Z,4.32
2018-03-15T04:24:51.085Z,4.35
2018-03-15T04:25:51.096Z,4.33
2018-03-15T04:26:51.080Z,4.32
2018-03-15T04:27:51.094Z,4.29
2018-03-15T04:28:51.099Z,4.29
2018-03-15T04:29:51.105Z,4.29
2018-03-15T04:30:51.336Z,4.32
2018-03-15T04:31:51.138Z,4.29
2018-03-15T04:32:51.111Z,4.28
2018-03-15T04:33:51.124Z,4.26
2018-03-15T04:34:51.131Z,4.29
2018-03-15T04:35:51.149Z,4.29
2018-03-15T04:36:51.137Z,4.3
2018-03-15T04:37:51.142Z,4.32
2018-03-15T04:38:51.122Z,4.26
2018-03-15T04:39:51.127Z,4.29
2018-03-15T04:40:51.155Z,4.3
2018-03-15T04:41:51.135Z,4.3
2018-03-15T04:42:51.154Z,4.28
2018-03-15T04:43:51.143Z,4.29
2018-03-15T04:44:51.154Z,4.33
2018-03-15T04:45:51.170Z,4.36
2018-03-15T04:46:51.166Z,4.33
2018-03-15T04:47:51.165Z,4.29
2018-03-15T04:48:51.163Z,4.3
2018-03-15T04:49:51.169Z,4.25
2018-03-15T04:50:51.191Z,4.25
2018-03-15T04:51:51.176Z,4.28
2018-03-15T04:52:51.171Z,4.29
2018-03-15T04:53:51.179Z,4.29
2018-03-15T04:54:51.185Z,4.25
2018-03-15T04:55:51.215Z,4.22
2018-03-15T04:56:51.197Z,4.24
2018-03-15T04:57:51.213Z,4.21
2018-03-15T04:58:51.214Z,4.22
2018-03-15T04:59:51.211Z,4.21
2018-03-15T05:00:51.239Z,4.21
2018-03-15T05:01:51.227Z,4.17
2018-03-15T05:02:51.230Z,4.19
2018-03-15T05:03:51.253Z,4.24
2018-03-15T05:04:51.246Z,4.19
2018-03-15T05:05:51.243Z,4.18
2018-03-15T05:06:51.259Z,4.17
2018-03-15T05:07:51.249Z,4.21
2018-03-15T05:08:51.251Z,4.18
2018-03-15T05:09:51.268Z,4.18
2018-03-15T05:10:51.303Z,4.19
2018-03-15T05:11:51.263Z,4.18
2018-03-15T05:12:51.264Z,4.18
2018-03-15T05:13:51.277Z,4.19
2018-03-15T05:14:51.283Z,4.21
2018-03-15T05:15:51.292Z,4.21
2018-03-15T05:16:51.301Z,4.21
2018-03-15T05:17:51.293Z,4.24
2018-03-15T05:18:51.286Z,4.26
2018-03-15T05:19:51.295Z,4.25
2018-03-15T05:20:51.286Z,4.25
2018-03-15T05:21:51.304Z,4.28
2018-03-15T05:22:51.291Z,4.26
2018-03-15T05:23:51.309Z,4.22
2018-03-15T05:24:51.296Z,4.25
2018-03-15T05:25:51.302Z,4.24
2018-03-15T05:26:51.312Z,4.24
2018-03-15T05:27:51.321Z,4.25
2018-03-15T05:28:51.331Z,4.24
2018-03-15T05:29:51.331Z,4.25
2018-03-15T05:30:51.331Z,4.24
2018-03-15T05:31:51.335Z,4.21
2018-03-15T05:32:51.327Z,4.29
2018-03-15T05:33:51.343Z,4.26
2018-03-15T05:34:51.364Z,4.25
2018-03-15T05:35:51.326Z,4.24
2018-03-15T05:36:51.332Z,4.24
2018-03-15T05:37:51.333Z,4.25
2018-03-15T05:38:51.331Z,4.26
2018-03-15T05:39:51.337Z,4.26
2018-03-15T05:40:51.354Z,4.26
2018-03-15T05:41:51.345Z,4.29
2018-03-15T05:42:51.344Z,4.29
2018-03-15T05:43:51.342Z,4.3
2018-03-15T05:44:51.469Z,4.3
2018-03-15T05:45:51.359Z,4.29
2018-03-15T05:46:51.381Z,4.29
2018-03-15T05:47:51.354Z,4.3
2018-03-15T05:48:51.356Z,4.32
2018-03-15T05:49:51.367Z,4.29
2018-03-15T05:50:51.359Z,4.32
2018-03-15T05:51:51.378Z,4.3
2018-03-15T05:52:51.418Z,4.32
2018-03-15T05:53:51.372Z,4.3
2018-03-15T05:54:51.380Z,4.32
2018-03-15T05:55:51.393Z,4.33
2018-03-15T05:56:51.377Z,4.35
2018-03-15T05:57:51.660Z,4.36
2018-03-15T05:58:51.379Z,4.35
2018-03-15T05:59:51.400Z,4.35
2018-03-15T06:00:51.411Z,4.42
2018-03-15T06:01:51.396Z,4.4
2018-03-15T06:02:51.429Z,4.45
2018-03-15T06:03:51.409Z,4.43
2018-03-15T06:04:51.404Z,4.4
2018-03-15T06:05:51.422Z,4.39
2018-03-15T06:06:51.404Z,4.42
2018-03-15T06:07:51.460Z,4.42
2018-03-15T06:08:51.416Z,4.43
2018-03-15T06:09:51.425Z,4.48
2018-03-15T06:10:51.436Z,4.4
2018-03-15T06:11:51.455Z,4.46
2018-03-15T06:12:51.434Z,4.45
2018-03-15T06:13:51.435Z,4.46
2018-03-15T06:14:51.436Z,4.46
2018-03-15T06:15:51.453Z,4.45
2018-03-15T06:16:51.481Z,4.48
2018-03-15T06:17:51.470Z,4.45
2018-03-15T06:18:51.464Z,4.48
2018-03-15T06:19:51.455Z,4.49
2018-03-15T06:20:51.461Z,4.49
2018-03-15T06:21:51.490Z,4.48
2018-03-15T06:22:51.474Z,4.48
2018-03-15T06:23:51.469Z,4.48
2018-03-15T06:24:51.515Z,4.46
2018-03-15T06:25:51.480Z,4.48
2018-03-15T06:26:51.478Z,4.51
2018-03-15T06:27:51.486Z,4.53
2018-03-15T06:28:51.608Z,4.53
2018-03-15T06:29:51.475Z,4.49
2018-03-15T06:30:51.487Z,4.52
2018-03-15T06:31:51.519Z,4.51
2018-03-15T06:32:51.485Z,4.51
2018-03-15T06:33:51.493Z,4.55
2018-03-15T06:34:51.497Z,4.53
2018-03-15T06:35:51.518Z,4.55
2018-03-15T06:36:51.524Z,4.56
2018-03-15T06:37:51.513Z,4.59
2018-03-15T06:38:51.512Z,4.59
2018-03-15T06:39:51.527Z,4.59
2018-03-15T06:40:51.543Z,4.57
2018-03-15T06:41:51.551Z,4.6
2018-03-15T06:42:51.918Z,4.63
2018-03-15T06:43:51.535Z,4.63
2018-03-15T06:44:51.558Z,4.66
2018-03-15T06:45:51.537Z,4.66
2018-03-15T06:46:51.579Z,4.66
2018-03-15T06:47:51.561Z,4.69
2018-03-15T06:48:51.546Z,4.69
2018-03-15T06:49:51.541Z,4.72
2018-03-15T06:50:51.540Z,4.7
2018-03-15T06:51:53.556Z,4.74
2018-03-15T06:52:51.552Z,4.74
2018-03-15T06:53:51.548Z,4.8
2018-03-15T06:54:54.480Z,4.77
2018-03-15T06:55:51.563Z,4.79
2018-03-15T06:56:51.578Z,4.8
2018-03-15T06:57:51.557Z,4.84
2018-03-15T06:58:51.565Z,4.83
2018-03-15T06:59:51.564Z,4.83
2018-03-15T07:00:51.561Z,4.84
2018-03-15T07:01:51.562Z,4.9
2018-03-15T07:02:51.570Z,4.9
2018-03-15T07:03:51.697Z,4.9
2018-03-15T07:04:51.587Z,4.9
2018-03-15T07:05:51.590Z,4.91
2018-03-15T07:06:51.808Z,4.94
2018-03-15T07:07:51.587Z,4.91
2018-03-15T07:08:51.615Z,4.94
2018-03-15T07:09:52.588Z,4.97
2018-03-15T07:10:51.601Z,4.97
2018-03-15T07:11:51.644Z,4.98
2018-03-15T07:12:51.619Z,5
2018-03-15T07:13:51.615Z,5.02
2018-03-15T07:14:51.639Z,5.02
2018-03-15T07:15:51.628Z,5.04
2018-03-15T07:16:51.630Z,5.07
2018-03-15T07:17:51.640Z,5.05
2018-03-15T07:18:51.648Z,5.07
2018-03-15T07:19:51.659Z,5.08
2018-03-15T07:20:51.653Z,5.12
2018-03-15T07:21:51.657Z,5.12
2018-03-15T07:22:51.660Z,5.16
2018-03-15T07:23:51.669Z,5.15
2018-03-15T07:24:51.677Z,5.18
2018-03-15T07:25:51.691Z,5.19
2018-03-15T07:26:51.673Z,5.22
2018-03-15T07:27:51.666Z,5.22
2018-03-15T07:28:51.679Z,5.22
2018-03-15T07:29:51.693Z,5.25
2018-03-15T07:30:51.678Z,5.26
2018-03-15T07:31:51.685Z,5.28
2018-03-15T07:32:51.685Z,5.3
2018-03-15T07:33:51.685Z,5.3
2018-03-15T07:34:51.705Z,5.33
2018-03-15T07:35:51.709Z,5.38
2018-03-15T07:36:51.734Z,5.35
2018-03-15T07:37:51.702Z,5.39
2018-03-15T07:38:51.711Z,5.39
2018-03-15T07:39:51.742Z,5.39
2018-03-15T07:40:51.723Z,5.42
2018-03-15T07:41:51.720Z,5.43
2018-03-15T07:42:51.746Z,5.46
2018-03-15T07:43:51.753Z,5.49
2018-03-15T07:44:51.848Z,5.49
2018-03-15T07:45:51.743Z,5.53
2018-03-15T07:46:51.735Z,5.56
2018-03-15T07:47:51.746Z,5.57
2018-03-15T07:48:51.913Z,5.57
2018-03-15T07:49:51.754Z,5.59
2018-03-15T07:50:51.927Z,5.63
2018-03-15T07:51:51.775Z,5.63
2018-03-15T07:52:51.761Z,5.66
2018-03-15T07:53:51.792Z,5.67
2018-03-15T07:54:51.771Z,5.67
2018-03-15T07:55:51.773Z,5.7
2018-03-15T07:56:51.792Z,5.73
2018-03-15T07:57:51.783Z,5.75
2018-03-15T07:58:51.803Z,5.8
2018-03-15T07:59:51.793Z,5.8
2018-03-15T08:00:51.791Z,5.83
2018-03-15T08:01:51.785Z,5.85
2018-03-15T08:02:51.788Z,5.81
2018-03-15T08:03:51.814Z,5.88
2018-03-15T08:04:51.791Z,5.88
2018-03-15T08:05:51.801Z,5.9
2018-03-15T08:06:51.814Z,5.92
2018-03-15T08:07:51.798Z,5.92
2018-03-15T08:08:51.833Z,5.98
2018-03-15T08:09:51.813Z,5.97
2018-03-15T08:10:51.828Z,6
2018-03-15T08:11:51.817Z,5.97
2018-03-15T08:12:51.828Z,6.02
2018-03-15T08:13:51.870Z,6.02
2018-03-15T08:14:51.844Z,6.05
2018-03-15T08:15:51.850Z,6.05
2018-03-15T08:16:51.840Z,6.05
2018-03-15T08:17:51.830Z,6.06
2018-03-15T08:18:51.834Z,6.08
2018-03-15T08:19:51.830Z,6.15
2018-03-15T08:20:51.866Z,6.13
2018-03-15T08:21:51.848Z,6.15
2018-03-15T08:22:51.839Z,6.15
2018-03-15T08:23:51.846Z,6.19
2018-03-15T08:24:51.867Z,6.22
2018-03-15T08:25:51.851Z,6.25
2018-03-15T08:26:51.865Z,6.26
2018-03-15T08:27:51.862Z,6.26
2018-03-15T08:28:51.866Z,6.3
2018-03-15T08:29:51.874Z,6.3
2018-03-15T08:30:52.130Z,6.33
2018-03-15T08:31:51.903Z,6.35
2018-03-15T08:32:51.893Z,6.36
2018-03-15T08:33:51.891Z,6.39
2018-03-15T08:34:51.903Z,6.4
2018-03-15T08:35:51.920Z,6.41
2018-03-15T08:36:52.064Z,6.44
2018-03-15T08:37:51.900Z,6.47
2018-03-15T08:38:52.047Z,6.47
2018-03-15T08:39:51.915Z,6.51
2018-03-15T08:40:51.922Z,6.53
2018-03-15T08:41:51.939Z,6.53
2018-03-15T08:42:51.929Z,6.57
2018-03-15T08:43:51.935Z,6.58
2018-03-15T08:44:51.930Z,6.58
2018-03-15T08:45:51.960Z,6.6
2018-03-15T08:46:51.957Z,6.64
2018-03-15T08:47:51.939Z,6.64
2018-03-15T08:48:51.947Z,6.65
2018-03-15T08:49:51.941Z,6.7
2018-03-15T08:50:51.945Z,6.7
2018-03-15T08:51:51.935Z,6.67
2018-03-15T08:52:51.953Z,6.73
2018-03-15T08:53:51.951Z,6.71
2018-03-15T08:54:51.958Z,6.74
2018-03-15T08:55:51.963Z,6.74
2018-03-15T08:56:51.988Z,6.77
2018-03-15T08:57:51.974Z,6.8
2018-03-15T08:58:51.979Z,6.77
2018-03-15T08:59:51.971Z,6.8
2018-03-15T09:00:51.978Z,6.78
2018-03-15T09:01:51.980Z,6.85
2018-03-15T09:02:52.016Z,6.84
2018-03-15T09:03:51.992Z,6.87
2018-03-15T09:04:52.079Z,6.88
2018-03-15T09:05:52.070Z,6.87
2018-03-15T09:06:52.009Z,6.88
2018-03-15T09:07:52.029Z,6.91
2018-03-15T09:08:52.218Z,6.95
2018-03-15T09:09:52.002Z,6.99
2018-03-15T09:10:52.024Z,6.98
2018-03-15T09:11:52.026Z,7.02
2018-03-15T09:12:52.066Z,7.03
2018-03-15T09:13:52.052Z,7.06
2018-03-15T09:14:52.018Z,7.09
2018-03-15T09:15:52.016Z,7.12
2018-03-15T09:16:52.020Z,7.18
2018-03-15T09:17:52.028Z,7.24
2018-03-15T09:18:52.068Z,7.26
2018-03-15T09:19:52.073Z,7.29
2018-03-15T09:20:52.048Z,7.34
2018-03-15T09:21:52.077Z,7.37
2018-03-15T09:22:52.081Z,7.37
2018-03-15T09:23:52.040Z,7.44
2018-03-15T09:24:52.045Z,7.41
2018-03-15T09:25:52.052Z,7.44
2018-03-15T09:26:52.046Z,7.47
2018-03-15T09:27:52.086Z,7.51
2018-03-15T09:28:52.184Z,7.51
2018-03-15T09:29:52.109Z,7.55
2018-03-15T09:30:52.110Z,7.55
2018-03-15T09:31:52.125Z,7.61
2018-03-15T09:32:52.197Z,7.64
2018-03-15T09:33:52.234Z,7.67
2018-03-15T09:34:52.215Z,7.67
2018-03-15T09:35:52.150Z,7.65
2018-03-15T09:36:52.114Z,7.68
2018-03-15T09:37:52.212Z,7.69
2018-03-15T09:38:52.173Z,7.74
2018-03-15T09:39:52.132Z,7.74
2018-03-15T09:40:52.143Z,7.75
2018-03-15T09:41:53.464Z,7.81
2018-03-15T09:42:52.162Z,7.81
2018-03-15T09:43:52.189Z,7.86
2018-03-15T09:44:52.301Z,7.89
2018-03-15T09:45:52.154Z,7.93
2018-03-15T09:46:52.149Z,7.93
2018-03-15T09:47:52.172Z,7.98
2018-03-15T09:48:52.208Z,7.99
2018-03-15T09:49:53.836Z,8.03
2018-03-15T09:50:52.177Z,8.05
2018-03-15T09:51:52.169Z,8.09
2018-03-15T09:52:52.191Z,8.13
2018-03-15T09:53:52.279Z,8.13
2018-03-15T09:54:52.178Z,8.16
2018-03-15T09:55:52.219Z,8.23
2018-03-15T09:56:53.358Z,8.21
2018-03-15T09:57:52.215Z,8.24
2018-03-15T09:58:52.198Z,8.26
2018-03-15T09:59:52.225Z,8.3
2018-03-15T10:00:52.230Z,8.31
2018-03-15T10:01:52.207Z,8.34
2018-03-15T10:02:52.220Z,8.37
2018-03-15T10:03:52.235Z,8.36
2018-03-15T10:04:53.806Z,8.34
2018-03-15T10:05:52.506Z,8.34
2018-03-15T10:06:52.216Z,8.41
2018-03-15T10:07:52.212Z,8.43
2018-03-15T10:08:52.267Z,8.41
2018-03-15T10:09:52.230Z,8.47
2018-03-15T10:10:52.223Z,8.49
2018-03-15T10:11:53.728Z,8.51
2018-03-15T10:12:52.244Z,8.57
2018-03-15T10:13:52.280Z,8.57
2018-03-15T10:14:52.304Z,8.59
2018-03-15T10:15:52.296Z,8.61
2018-03-15T10:16:52.236Z,8.65
2018-03-15T10:17:52.239Z,8.68
2018-03-15T10:18:52.453Z,8.66
2018-03-15T10:19:52.247Z,8.75
2018-03-15T10:20:52.242Z,8.76
2018-03-15T10:21:52.263Z,8.76
2018-03-15T10:22:52.255Z,8.8
2018-03-15T10:23:52.301Z,8.85
2018-03-15T10:24:52.286Z,8.85
2018-03-15T10:25:52.283Z,8.92
2018-03-15T10:26:54.015Z,8.92
2018-03-15T10:27:52.308Z,8.95
2018-03-15T10:28:52.320Z,8.93
2018-03-15T10:31:58.547Z,9.02
2018-03-15T10:32:52.353Z,9
2018-03-15T10:33:53.926Z,9.02
2018-03-15T10:34:52.298Z,9.04
2018-03-15T10:35:52.317Z,9.06
2018-03-15T10:36:52.295Z,9.09
2018-03-15T10:37:52.306Z,9.11
2018-03-15T10:38:52.308Z,9.11
2018-03-15T10:39:52.310Z,9.14
2018-03-15T10:40:52.331Z,9.16
2018-03-15T10:41:54.041Z,9.19
2018-03-15T10:42:52.346Z,9.19
2018-03-15T10:43:52.314Z,9.2
2018-03-15T10:44:52.320Z,9.23
2018-03-15T10:45:52.343Z,9.24
2018-03-15T10:46:52.321Z,9.27
2018-03-15T10:47:52.342Z,9.27
2018-03-15T10:48:52.334Z,9.3
2018-03-15T10:49:52.342Z,9.33
2018-03-15T10:50:52.548Z,9.34
2018-03-15T10:51:52.334Z,9.33
2018-03-15T10:52:52.324Z,9.34
2018-03-15T10:53:52.345Z,9.37
2018-03-15T10:54:52.327Z,9.38
2018-03-15T10:55:52.383Z,9.4
2018-03-15T10:56:53.097Z,9.44
2018-03-15T10:57:52.852Z,9.47
2018-03-15T10:58:52.328Z,9.47
2018-03-15T10:59:52.628Z,9.48
2018-03-15T11:00:52.364Z,9.51
2018-03-15T11:01:52.364Z,9.51
2018-03-15T11:02:52.358Z,9.51
2018-03-15T11:03:52.347Z,9.59
2018-03-15T11:04:53.839Z,9.59
2018-03-15T11:05:52.367Z,9.61
2018-03-15T11:06:52.354Z,9.65
2018-03-15T11:07:52.802Z,9.68
2018-03-15T11:08:52.362Z,9.72
2018-03-15T11:09:52.397Z,9.72
2018-03-15T11:10:52.392Z,9.72
2018-03-15T11:11:52.427Z,9.79
2018-03-15T11:12:53.947Z,9.78
2018-03-15T11:13:52.407Z,9.81
2018-03-15T11:14:52.385Z,9.88
2018-03-15T11:15:52.427Z,9.93
2018-03-15T11:16:52.429Z,9.94
2018-03-15T11:17:52.798Z,9.96
2018-03-15T11:18:52.387Z,10
2018-03-15T11:19:52.436Z,10.06
2018-03-15T11:20:54.054Z,10.09
2018-03-15T11:21:52.401Z,10.11
2018-03-15T11:22:52.419Z,10.13
2018-03-15T11:23:52.882Z,10.19
2018-03-15T11:24:52.406Z,10.2
2018-03-15T11:25:52.439Z,10.27
2018-03-15T11:26:52.403Z,10.28
2018-03-15T11:27:52.910Z,10.35
2018-03-15T11:28:52.425Z,10.42
2018-03-15T11:29:52.404Z,10.49
2018-03-15T11:30:52.415Z,10.58
2018-03-15T11:31:52.445Z,10.62
2018-03-15T11:32:52.654Z,10.69
2018-03-15T11:33:52.490Z,10.72
2018-03-15T11:34:52.448Z,10.78
2018-03-15T11:35:52.794Z,10.86
2018-03-15T11:36:52.428Z,10.96
2018-03-15T11:37:52.881Z,10.96
2018-03-15T11:38:52.460Z,11.01
2018-03-15T11:39:52.437Z,11.12
2018-03-15T11:40:52.437Z,11.18
2018-03-15T11:41:52.504Z,11.28
2018-03-15T11:42:52.540Z,11.31
2018-03-15T11:43:53.901Z,11.37
2018-03-15T11:44:52.467Z,11.39
2018-03-15T11:45:52.437Z,11.45
2018-03-15T11:46:52.479Z,11.54
2018-03-15T11:47:52.503Z,11.58
2018-03-15T11:48:52.493Z,11.55
2018-03-15T11:49:52.453Z,11.58
2018-03-15T11:50:52.508Z,11.59
2018-03-15T11:51:54.311Z,11.64
2018-03-15T11:52:52.503Z,11.66
2018-03-15T11:53:52.468Z,11.7
2018-03-15T11:54:52.485Z,11.73
2018-03-15T11:55:52.491Z,11.82
2018-03-15T11:56:52.536Z,11.89
2018-03-15T11:57:52.531Z,11.98
2018-03-15T11:58:53.171Z,12.08
2018-03-15T11:59:52.493Z,12.14
2018-03-15T12:00:52.531Z,12.24
2018-03-15T12:01:52.501Z,12.23
2018-03-15T12:02:52.528Z,12.27
2018-03-15T12:03:52.522Z,12.27
2018-03-15T12:04:52.517Z,12.38
2018-03-15T12:05:52.495Z,12.41
2018-03-15T12:06:54.209Z,12.44
2018-03-15T12:07:52.555Z,12.56
2018-03-15T12:08:52.582Z,12.57
2018-03-15T12:09:52.525Z,12.62
2018-03-15T12:10:52.506Z,12.69
2018-03-15T12:11:52.522Z,12.72
2018-03-15T12:12:52.560Z,12.72
2018-03-15T12:13:52.551Z,12.7
2018-03-15T12:14:54.425Z,12.72
2018-03-15T12:15:52.557Z,12.73
2018-03-15T12:16:52.559Z,12.77
2018-03-15T12:17:52.522Z,12.82
2018-03-15T12:18:52.518Z,12.86
2018-03-15T12:19:52.536Z,12.91
2018-03-15T12:20:52.535Z,13.01
2018-03-15T12:21:52.541Z,13.14
2018-03-15T12:22:52.543Z,13.11
2018-03-15T12:23:52.768Z,13.18
2018-03-15T12:24:58.697Z,13.15
2018-03-15T12:25:52.578Z,13.1
2018-03-15T12:26:52.539Z,13.17
2018-03-15T12:27:52.579Z,13.19
2018-03-15T12:28:52.585Z,13.24
2018-03-15T12:29:52.649Z,13.29
2018-03-15T12:30:52.560Z,13.31
2018-03-15T12:31:52.554Z,13.34
2018-03-15T12:32:52.536Z,13.46
2018-03-15T12:33:52.598Z,13.52
2018-03-15T12:34:52.564Z,13.45
2018-03-15T12:35:52.561Z,13.5
2018-03-15T12:36:52.568Z,13.49
2018-03-15T12:37:52.568Z,13.52
2018-03-15T12:38:52.637Z,13.49
2018-03-15T12:39:52.589Z,13.49
2018-03-15T12:40:52.580Z,13.52
2018-03-15T12:41:52.581Z,13.57
2018-03-15T12:42:52.574Z,13.59
2018-03-15T12:43:52.592Z,13.59
2018-03-15T12:44:52.599Z,13.55
2018-03-15T12:45:52.599Z,13.46
2018-03-15T12:46:52.579Z,13.45
2018-03-15T12:47:52.586Z,13.32
2018-03-15T12:48:52.588Z,13.31
2018-03-15T12:49:52.662Z,13.32
2018-03-15T12:50:52.586Z,13.21
2018-03-15T12:51:52.605Z,13.15
2018-03-15T12:52:52.598Z,13.07
2018-03-15T12:53:52.605Z,13.06
2018-03-15T12:54:52.628Z,13.07
2018-03-15T12:55:52.618Z,13
2018-03-15T12:56:52.637Z,13.03
2018-03-15T12:57:52.625Z,12.96
2018-03-15T12:58:52.640Z,12.96
2018-03-15T12:59:52.623Z,12.91
2018-03-15T13:00:52.628Z,12.91
2018-03-15T13:01:52.844Z,12.91
2018-03-15T13:02:52.636Z,12.93
2018-03-15T13:03:52.645Z,12.91
2018-03-15T13:04:52.635Z,12.93
2018-03-15T13:05:52.663Z,12.93
2018-03-15T13:06:52.644Z,12.83
2018-03-15T13:07:52.648Z,12.77
2018-03-15T13:08:52.641Z,12.74
2018-03-15T13:09:52.638Z,12.76
2018-03-15T13:10:52.675Z,12.72
2018-03-15T13:11:52.660Z,12.69
2018-03-15T13:12:52.660Z,12.67
2018-03-15T13:13:52.665Z,12.66
2018-03-15T13:14:52.666Z,12.67
2018-03-15T13:15:52.698Z,12.67
2018-03-15T13:16:52.672Z,12.7
2018-03-15T13:17:52.676Z,12.66
2018-03-15T13:18:52.671Z,12.69
2018-03-15T13:19:52.682Z,12.66